Terminal Aerodrome Forecast
Issued by NWS

Current Version | Previous Version | Text Only | Print | Product List | Glossary On
Versions: 1 2 3 4 5 6 7 8 9 10 11 12 13
000
FTUS42 TJSJ 010500
TAFJMZ
TAF
TJMZ 010540Z 0106/0206 VRB05KT P6SM FEW030
     FM011630 26010KT P6SM VCTS SCT030CB BKN050
      AMD NOT SKED TIL 011100=

USA.gov is the U.S. government's official web portal to all federal, state and local government web resources and services.